Flight Track Log - Related Links

Times and Time Zones

All times are in EDT time to prevent confusion due to time zone crossing. See the N966QS flight status page for this flight to view local times or setup timezone preferences in your user account.

Time Position Orientation Groundspeed Altitude Reporting Facility
EDT Latitude Longitude Course Direction KTS MPH feet Rate Location/Type
Wed 09:37:44 PM 41.7833 -87.8167 90° East 214 246 3,000  Level Chicago TRACON
Wed 09:38:51 PM 41.8167 -87.7833 37° Northeast 236 272 3,000 1,915 Level Chicago TRACON
Wed 09:41:17 PM 41.8075 -87.5481 93° East 266 306 9,800 2,567 Climbing Chicago Center
Wed 09:42:19 PM 41.7967 -87.4383 98° East 291 335 11,900 1,854 Climbing Chicago Center
Wed 09:43:00 PM 41.7500 -86.8295 90° East  Level FlightAware Approximate
Wed 09:43:20 PM 41.7842 -87.3086 97° East 345 397 13,600  Level Chicago Center
Wed 09:44:22 PM 41.7717 -87.1747 97° East 360 414 15,400 1,839 Climbing Chicago Center
Wed 09:45:24 PM 41.7597 -87.0358 97° East 373 429 17,400 1,805 Climbing Chicago Center
Wed 09:46:25 PM 41.7631 -86.8931 88° East 383 441 19,100 2,049 Climbing Chicago Center
Wed 09:47:27 PM 41.7647 -86.7158 89° East 397 457 21,600 2,195 Climbing Chicago Center
Wed 09:48:28 PM 41.7661 -86.5797 89° East 406 467 23,600 2,000 Climbing Chicago Center
Wed 09:49:30 PM 41.7672 -86.4247 89° East 415 478 25,700 1,902 Climbing Chicago Center
Wed 09:50:31 PM 41.7653 -86.2658 91° East 426 490 27,500 1,805 Climbing Chicago Center
Wed 09:51:33 PM 41.7525 -86.0697 95° East 441 507 29,400 1,756 Climbing Chicago Center
Wed 09:52:34 PM 41.7414 -85.8986 95° East 457 526 31,100 2,146 Climbing Chicago Center
Wed 09:53:36 PM 41.7311 -85.7253 94° East 465 535 33,800 2,244 Climbing Chicago Center
Wed 09:54:37 PM 41.7208 -85.5539 95° East 460 529 35,700 1,659 Climbing Chicago Center
Wed 09:55:39 PM 41.7081 -85.3975 96° East 459 528 37,200 1,610 Climbing Chicago Center
Wed 09:56:40 PM 41.6967 -85.1903 94° East 507 583 39,000 939 Climbing Chicago Center
Wed 09:57:34 PM 41.6856 -85.0436 96° East 490 564 39,000  Level Cleveland Center
Wed 09:58:33 PM 41.6719 -84.8536 95° East 490 564 39,000  Level Cleveland Center
Wed 09:59:33 PM 41.6622 -84.6583 94° East 504 580 39,000  Level Cleveland Center
Wed 10:00:33 PM 41.6544 -84.4658 93° East 516 594 39,000  Level Cleveland Center
Wed 10:01:33 PM 41.6272 -84.2781 101° East 521 600 39,000  Level Cleveland Center
Wed 10:02:33 PM 41.5453 -84.1014 122° Southeast 501 577 39,000  Level Cleveland Center
Wed 10:03:33 PM 41.4750 -83.9422 120° Southeast 501 577 39,000  Level Cleveland Center
Wed 10:04:33 PM 41.4044 -83.7808 120° Southeast 507 583 39,000  Level Cleveland Center
Wed 10:05:33 PM 41.3297 -83.6139 121° Southeast 512 589 39,000  Level Cleveland Center
Wed 10:06:33 PM 41.2569 -83.4531 121° Southeast 512 589 39,000  Level Cleveland Center
Wed 10:07:33 PM 41.1836 -83.2897 121° Southeast 512 589 39,000  Level Cleveland Center
Wed 10:08:33 PM 41.1122 -83.1297 121° Southeast 512 589 39,000  Level Cleveland Center
Wed 10:11:04 PM 40.9272 -82.7139 120° Southeast 522 601 39,000  Level Indianapolis Center
Wed 10:12:05 PM 40.8508 -82.5489 121° Southeast 523 602 39,000  Level Indianapolis Center
Wed 10:13:06 PM 40.7747 -82.3844 121° Southeast 524 603 39,000  Level Indianapolis Center
Wed 10:13:33 PM 40.7358 -82.3067 123° Southeast 542 624 39,000  Level Cleveland Center
Wed 10:14:33 PM 40.6589 -82.1406 121° Southeast 517 595 39,000  Level Cleveland Center
Wed 10:15:33 PM 40.5839 -81.9775 121° Southeast 524 603 39,000  Level Cleveland Center
Wed 10:16:33 PM 40.5147 -81.8311 122° Southeast 530 610 39,000  Level Cleveland Center
Wed 10:17:33 PM 40.4350 -81.6661 122° Southeast 530 610 39,000  Level Cleveland Center
Wed 10:18:33 PM 40.3553 -81.5014 122° Southeast 530 610 39,000  Level Cleveland Center
Wed 10:19:33 PM 40.2775 -81.3206 119° Southeast 524 603 39,000  Level Cleveland Center
Wed 10:21:15 PM 40.1511 -81.0658 123° Southeast 533 613 39,000  Level Indianapolis Center
Wed 10:21:33 PM 40.1186 -80.9983 122° Southeast 524 603 39,000 -154 Level Cleveland Center
Wed 10:22:33 PM 40.0397 -80.8325 122° Southeast 530 610 38,800 -900 Descending Cleveland Center
Wed 10:23:33 PM 39.9628 -80.6725 122° Southeast 525 604 37,200 -1,500 Descending Cleveland Center
Wed 10:24:33 PM 39.8858 -80.5181 123° Southeast 525 604 35,800 -1,357 Descending Cleveland Center
Wed 10:26:21 PM 39.7631 -80.2744 123° Southeast 497 572 33,400 -1,360 Descending Indianapolis Center
Wed 10:27:03 PM 39.7083 -80.1583 121° Southeast 499 574 32,400 -1,412 Descending Washington Center
Wed 10:28:03 PM 39.6347 -80.0108 123° Southeast 499 574 31,000 -1,388 Descending Washington Center
Wed 10:29:04 PM 39.5631 -79.8611 122° Southeast 499 574 29,600 -1,377 Descending Washington Center
Wed 10:30:05 PM 39.5294 -79.6894 104° East 481 554 28,200 -1,322 Descending Washington Center
Wed 10:31:02 PM 39.4975 -79.5183 104° East 486 559 27,000 -615 Descending Washington Center
Wed 10:32:02 PM 39.4678 -79.3444 102° East 486 559 27,000 -893 Level Washington Center
Wed 10:33:03 PM 39.4317 -79.1572 104° East 496 571 25,200 -1,951 Descending Washington Center
Wed 10:34:05 PM 39.4067 -79.0136 103° East 463 533 23,000 -2,100 Descending Washington Center
Wed 10:35:03 PM 39.3833 -78.8836 103° East 410 472 21,000 -2,034 Descending Washington Center
Wed 10:36:03 PM 39.3597 -78.7536 103° East 380 437 19,000 -1,934 Descending Washington Center
Wed 10:37:04 PM 39.3339 -78.6211 104° East 375 432 17,100 -1,966 Descending Washington Center
Wed 10:38:02 PM 39.3100 -78.4939 104° East 375 432 15,100 -1,966 Descending Washington Center
Wed 10:39:03 PM 39.2897 -78.3778 103° East 354 407 13,200 -1,339 Descending Washington Center
Wed 10:40:03 PM 39.2797 -78.2622 96° East 331 381 12,400 -800 Descending Washington Center
Wed 10:41:03 PM 39.2842 -78.1578 87° East 306 352 11,600 -694 Descending Washington Center
Wed 10:42:04 PM 39.2864 -78.0586 88° East 287 330 11,000 -992 Descending Washington Center
Wed 10:43:04 PM 39.2883 -77.9594 89° East 280 322 9,600 -1,916 Descending Washington Center
Wed 10:44:03 PM 39.2881 -77.8656 90° East 270 311 7,200 -2,067 Descending Washington Center
Wed 10:45:03 PM 39.2625 -77.7764 110° East 265 305 5,500 -1,091 Descending Washington Center
Wed 10:46:04 PM 39.2433 -77.6900 106° East 259 298 5,000 -605 Descending Washington Center
Wed 10:47:02 PM 39.2500 -77.6167 83° East 233 268 4,300 -407 Descending Potomac TRACON
Wed 10:48:02 PM 39.2833 -77.5500 57° Northeast 208 239 4,200 -100 Descending Potomac TRACON
Wed 10:49:02 PM 39.2833 -77.4833 90° East 219 252 4,100 -99 Descending Potomac TRACON
Wed 10:50:03 PM 39.2333 -77.4333 142° Southeast 209 241 4,000 -350 Descending Potomac TRACON
Wed 10:51:02 PM 39.1833 -77.4333 180° South 209 241 3,400 -478 Descending Potomac TRACON
Wed 10:51:56 PM 39.1333 -77.4333 180° South 202 232 3,100 -400 Descending Potomac TRACON
Wed 10:53:02 PM 39.0667 -77.4333 180° South 192 221 2,600 -600 Descending Potomac TRACON
Wed 10:53:56 PM 39.0333 -77.4333 180° South 170 196 1,900 -737 Descending Potomac TRACON
Wed 10:54:56 PM 39.0000 -77.4333 180° South 138 159 1,200 -700 Descending Potomac TRACON

Login

Don't have an account? Register now (free) for customized features, flight alerts, and more!